O'Kean, Arkansas
Current Conditions -  °F | °C
As of 8:35 PM on Wednesday 17 Dec 2014 (Local Time) from KARG Reporting Station
Few Clouds Few Clouds  
Wind Chill: 34°   Ceiling: Unl
Heat Index: 37°   Visibility: 10mi
Dew Point: 30°   Wind: 5mph
Humidity: 75%   Direction: 60°ENE
Pressure: 30.25"   Gusts: NA
Location:  36.17°N, 90.81°W
Report Text: KARG 180235Z AUTO 06004KT 10SM FEW070 FEW100 03/M01 A3025 RMK AO1
Loading
Personal Weather Stations






























Interactive Weather Map New forecast layout! Learn more

10-Day Weather Forecast

Advertisements
Track Severe Weather on mobile